Luxi, China
Current Conditions -  °F | °C
As of 10:00 AM on Thursday 18 Dec 2014 (Local Time) from ZPPP Reporting Station
Haze Haze  
Wind Chill: 32°   Ceiling: 3000
Heat Index: 36°   Visibility: 1mi
Dew Point: 36°   Wind: 4mph
Humidity: 100%   Direction: 70°ENE
Pressure: 30.33"   Gusts: NA
Location:  24.53°N, 103.77°E
Report Text: ZPPP 180200Z 07002MPS 1600 BR SCT010 OVC030 02/02 Q1027 NOSIG
Loading
Personal Weather Stations






























Interactive Weather Map New forecast layout! Learn more

10-Day Weather Forecast

Advertisements
Track Severe Weather on mobile